Time;durP1;ratioP1;P1;durP2;ratioP2;P2;SDS_P1;SDS_P2;PMS_P1;PMS_P2;Temp;Humidity;BMP_temperature;BMP_pressure;BME280_temperature;BME280_humidity;BME280_pressure;Samples;Min_cycle;Max_cycle;Signal;HPM_P1;HPM_P2
2023/10/12 00:02:00;;;;;;;;;;;;;;;20.16;59.15;97822.80;601602;234;64670;-64
2023/10/12 00:04:43;;;;;;;;;;;;;;;20.18;59.21;97828.70;602187;235;66980;-64
2023/10/12 00:07:25;;;;;;;;;;;;;;;20.16;59.37;97818.28;602322;235;62500;-64
2023/10/12 00:10:00;;;;;;;;;;;;;;;20.17;59.38;97817.22;602444;233;66845;-64
2023/10/12 00:12:24;;;;;;;;;;;;;;;20.16;59.41;97815.62;601723;234;67001;-64
2023/10/12 00:14:56;;;;;;;;;;;;;;;20.15;59.42;97811.31;602391;235;64683;-64
2023/10/12 00:17:23;;;;;;;;;;;;;;;20.16;59.40;97817.45;602020;233;67622;-64
2023/10/12 00:19:51;;;;;;;;;;;;;;;20.16;59.54;97812.95;602435;235;66896;-64
2023/10/12 00:22:18;;;;;;;;;;;;;;;20.16;59.39;97812.95;602213;235;63522;-64
2023/10/12 00:24:46;;;;;;;;;;;;;;;20.16;59.38;97802.27;602434;235;64837;-64
2023/10/12 00:27:14;;;;;;;;;;;;;;;20.16;59.28;97804.94;602403;234;64773;-64
2023/10/12 00:29:44;;;;;;;;;;;;;;;20.16;59.22;97802.27;602449;235;65489;-64
2023/10/12 00:32:13;;;;;;;;;;;;;;;20.17;59.19;97800.41;602586;235;67005;-64
2023/10/12 00:34:48;;;;;;;;;;;;;;;20.16;59.16;97796.94;602541;235;66782;-64
2023/10/12 00:37:16;;;;;;;;;;;;;;;20.17;59.17;97803.08;602504;235;64938;-66
2023/10/12 00:40:22;;;;;;;;;;;;;;;20.17;59.19;97795.88;602366;235;66810;-63
2023/10/12 00:42:18;;;;;;;;;;;;;;;20.17;59.17;97792.41;601209;233;64289;-63
2023/10/12 00:44:52;;;;;;;;;;;;;;;20.17;59.19;97789.73;602412;235;64633;-64
2023/10/12 00:47:43;;;;;;;;;;;;;;;20.17;59.42;97787.87;602239;235;66996;-64
2023/10/12 00:49:49;;;;;;;;;;;;;;;20.16;60.56;97783.59;598639;234;66700;-65
2023/10/12 00:52:26;;;;;;;;;;;;;;;20.16;60.78;97783.59;597505;235;62364;-65
2023/10/12 00:55:04;;;;;;;;;;;;;;;20.17;60.27;97779.06;597383;237;64659;-63
2023/10/12 00:57:27;;;;;;;;;;;;;;;20.16;59.48;97786.27;597037;237;64340;-63
2023/10/12 00:59:55;;;;;;;;;;;;;;;20.15;59.40;97784.63;596573;234;62508;-63
2023/10/12 01:02:29;;;;;;;;;;;;;;;20.15;59.33;97779.30;596321;238;68106;-63
2023/10/12 01:04:53;;;;;;;;;;;;;;;20.16;59.26;97785.42;596176;238;67652;-64
2023/10/12 01:07:25;;;;;;;;;;;;;;;20.15;59.29;97779.30;596263;238;64924;-63
2023/10/12 01:09:54;;;;;;;;;;;;;;;20.15;59.23;97787.30;596262;235;67571;-67
2023/10/12 01:12:19;;;;;;;;;;;;;;;20.16;59.26;97786.27;596261;235;67011;-67
2023/10/12 01:14:47;;;;;;;;;;;;;;;20.16;59.22;97783.59;596285;238;62356;-67
2023/10/12 01:17:24;;;;;;;;;;;;;;;20.16;59.22;97777.42;596319;238;67321;-67
2023/10/12 01:19:47;;;;;;;;;;;;;;;20.16;59.23;97778.25;596142;238;68017;-68
2023/10/12 01:22:16;;;;;;;;;;;;;;;20.16;59.24;97780.09;596347;238;62393;-68
2023/10/12 01:27:23;;;;;;;;;;;;;;;20.17;59.23;97784.39;596283;238;68207;-68
2023/10/12 01:29:53;;;;;;;;;;;;;;;20.16;59.23;97788.09;596269;238;62372;-68
2023/10/12 01:32:22;;;;;;;;;;;;;;;20.17;59.28;97782.53;596309;238;68032;-68
2023/10/12 01:35:04;;;;;;;;;;;;;;;20.16;60.01;97778.25;596306;238;67024;-68
2023/10/12 01:37:28;;;;;;;;;;;;;;;20.17;60.01;97779.86;596022;235;65622;-68
2023/10/12 01:42:49;;;;;;;;;;;;;;;20.16;61.30;97788.93;596317;238;64749;-68
2023/10/12 01:45:06;;;;;;;;;;;;;;;20.16;60.53;97788.09;595471;237;68000;-68
2023/10/12 01:47:37;;;;;;;;;;;;;;;20.16;60.60;97782.76;596385;238;64910;-68
2023/10/12 01:50:02;;;;;;;;;;;;;;;20.15;60.10;97784.63;601050;234;64808;-68
2023/10/12 01:52:30;;;;;;;;;;;;;;;20.15;59.53;97775.82;604450;234;64970;-68
2023/10/12 01:54:58;;;;;;;;;;;;;;;20.14;59.41;97783.02;604389;234;67230;-68
2023/10/12 01:57:36;;;;;;;;;;;;;;;20.15;59.40;97781.16;604434;234;64694;-68
2023/10/12 01:59:55;;;;;;;;;;;;;;;20.15;59.31;97781.16;604069;234;64739;-68
2023/10/12 02:02:23;;;;;;;;;;;;;;;20.15;59.26;97781.96;604464;234;67287;-68
2023/10/12 02:04:51;;;;;;;;;;;;;;;20.15;59.28;97784.63;604463;234;66887;-68
2023/10/12 02:07:19;;;;;;;;;;;;;;;20.15;59.24;97779.30;604417;234;65308;-68
2023/10/12 02:09:49;;;;;;;;;;;;;;;20.15;59.34;97789.97;604374;234;67225;-68
2023/10/12 02:12:16;;;;;;;;;;;;;;;20.16;59.96;97780.09;604425;234;71225;-68
2023/10/12 02:14:45;;;;;;;;;;;;;;;20.16;61.92;97786.27;604494;234;62449;-68
2023/10/12 02:17:12;;;;;;;;;;;;;;;20.15;61.31;97789.16;604415;234;65677;-68
2023/10/12 02:19:43;;;;;;;;;;;;;;;20.15;61.79;97789.16;604424;234;65619;-68
2023/10/12 02:22:24;;;;;;;;;;;;;;;20.14;62.41;97783.02;604420;234;64703;-68
2023/10/12 02:25:43;;;;;;;;;;;;;;;20.14;62.18;97782.22;604463;234;67281;-68
2023/10/12 02:27:23;;;;;;;;;;;;;;;20.13;61.33;97786.76;600565;234;64682;-68
2023/10/12 02:29:53;;;;;;;;;;;;;;;20.13;61.03;97784.09;604477;234;65351;-68
2023/10/12 02:32:24;;;;;;;;;;;;;;;20.13;61.72;97778.75;604434;234;67750;-68
2023/10/12 02:35:00;;;;;;;;;;;;;;;20.14;61.47;97776.88;604418;234;67345;-68
2023/10/12 02:37:25;;;;;;;;;;;;;;;20.14;61.15;97787.56;604214;234;65504;-68
2023/10/12 02:39:54;;;;;;;;;;;;;;;20.13;61.13;97781.42;604454;234;64402;-68
2023/10/12 02:42:41;;;;;;;;;;;;;;;20.13;61.55;97775.25;604503;234;66940;-68
2023/10/12 02:47:30;;;;;;;;;;;;;;;20.13;61.61;97778.75;604437;233;65342;-68
2023/10/12 02:50:57;;;;;;;;;;;;;;;20.13;61.43;97773.41;600494;233;67259;-68
2023/10/12 02:52:27;;;;;;;;;;;;;;;20.13;61.50;97773.41;593092;237;64947;-68
2023/10/12 02:54:56;;;;;;;;;;;;;;;20.13;61.36;97769.91;596319;238;64815;-68
2023/10/12 02:57:31;;;;;;;;;;;;;;;20.13;62.10;97775.25;596340;238;67128;-68
2023/10/12 03:00:12;;;;;;;;;;;;;;;20.14;61.69;97766.21;596310;235;63315;-68
2023/10/12 03:02:34;;;;;;;;;;;;;;;20.12;62.32;97761.11;595731;238;67133;-68
2023/10/12 03:05:04;;;;;;;;;;;;;;;20.13;61.52;97764.58;596322;238;67052;-68
2023/10/12 03:07:35;;;;;;;;;;;;;;;20.12;62.07;97758.44;596305;238;64590;-68
2023/10/12 03:10:06;;;;;;;;;;;;;;;20.13;62.05;97761.91;596269;235;67042;-68
2023/10/12 03:12:34;;;;;;;;;;;;;;;20.13;61.65;97764.58;596170;238;67268;-68
2023/10/12 03:14:59;;;;;;;;;;;;;;;20.12;61.63;97753.10;596213;238;64731;-68
2023/10/12 03:17:27;;;;;;;;;;;;;;;20.13;61.30;97759.23;596303;238;64990;-68
2023/10/12 03:19:55;;;;;;;;;;;;;;;20.13;62.39;97756.58;596301;238;66910;-68
2023/10/12 03:22:34;;;;;;;;;;;;;;;20.12;62.28;97757.64;596302;238;65031;-68
2023/10/12 03:25:03;;;;;;;;;;;;;;;20.11;62.36;97756.84;596298;235;67769;-68
2023/10/12 03:27:24;;;;;;;;;;;;;;;20.12;62.36;97750.44;596013;238;66843;-69
2023/10/12 03:30:02;;;;;;;;;;;;;;;20.11;61.82;97759.50;596312;238;62366;-68
2023/10/12 03:32:23;;;;;;;;;;;;;;;20.12;61.64;97760.30;595997;238;64834;-68
2023/10/12 03:34:53;;;;;;;;;;;;;;;20.12;61.96;97758.44;596279;238;67090;-69
2023/10/12 03:37:44;;;;;;;;;;;;;;;20.12;62.05;97760.30;596315;235;62388;-68
2023/10/12 03:45:08;;;;;;;;;;;;;;;20.13;62.24;97757.41;596300;238;64823;-68
2023/10/12 03:48:03;;;;;;;;;;;;;;;20.12;62.12;97757.64;596311;234;65098;-68
2023/10/12 03:50:17;;;;;;;;;;;;;;;20.11;62.19;97759.50;601007;234;64657;-68
2023/10/12 03:52:52;;;;;;;;;;;;;;;20.11;62.01;97754.17;604461;234;66179;-68
2023/10/12 03:55:28;;;;;;;;;;;;;;;20.11;61.63;97762.17;604139;234;65425;-68
2023/10/12 03:58:08;;;;;;;;;;;;;;;20.12;62.42;97762.98;604426;234;66974;-68
2023/10/12 04:00:47;;;;;;;;;;;;;;;20.11;62.26;97761.38;604394;234;65059;-68
2023/10/12 04:03:12;;;;;;;;;;;;;;;20.12;62.65;97757.64;603995;234;67592;-68
2023/10/12 04:05:45;;;;;;;;;;;;;;;20.11;62.53;97761.38;604166;234;66899;-68
2023/10/12 04:19:09;;;;;;;;;;;;;;;20.10;62.12;97749.86;604472;234;64831;-69
2023/10/12 04:21:13;;;;;;;;;;;;;;;20.11;62.47;97758.70;602366;234;64783;-69
2023/10/12 04:28:52;;;;;;;;;;;;;;;20.09;62.41;97742.92;604426;234;66889;-68
2023/10/12 04:31:33;;;;;;;;;;;;;;;20.11;62.53;97745.36;604190;234;65261;-69
2023/10/12 04:37:09;;;;;;;;;;;;;;;20.11;62.36;97740.02;604434;234;66871;-68
2023/10/12 04:39:10;;;;;;;;;;;;;;;20.10;62.22;97743.73;602164;234;64925;-68
2023/10/12 04:41:38;;;;;;;;;;;;;;;20.10;62.05;97743.73;604004;234;65719;-68
2023/10/12 04:44:06;;;;;;;;;;;;;;;20.10;62.40;97741.06;604034;232;66267;-68
2023/10/12 04:51:49;;;;;;;;;;;;;;;20.10;62.12;97741.86;588679;238;67595;-68
2023/10/12 04:54:23;;;;;;;;;;;;;;;20.09;61.96;97742.92;588877;239;62635;-68
2023/10/12 04:59:42;;;;;;;;;;;;;;;20.10;62.04;97738.39;594529;235;66838;-68
2023/10/12 05:09:53;;;;;;;;;;;;;;;20.10;62.12;97744.53;602220;234;62609;-68
2023/10/12 05:12:14;;;;;;;;;;;;;;;20.09;61.93;97742.92;601774;235;64576;-68
2023/10/12 05:14:41;;;;;;;;;;;;;;;20.11;61.89;97753.36;602404;235;67075;-68
2023/10/12 05:17:09;;;;;;;;;;;;;;;20.10;61.98;97749.86;602317;234;62457;-68
2023/10/12 05:19:37;;;;;;;;;;;;;;;20.10;61.77;97747.20;602379;235;67417;-64
2023/10/12 05:22:04;;;;;;;;;;;;;;;20.10;61.76;97743.73;602366;234;66754;-64
2023/10/12 05:24:32;;;;;;;;;;;;;;;20.10;61.73;97744.53;602300;235;64592;-64
2023/10/12 05:29:51;;;;;;;;;;;;;;;20.10;61.77;97744.53;602337;235;66987;-64
2023/10/12 05:34:48;;;;;;;;;;;;;;;20.10;61.60;97754.40;602163;235;64958;-64
2023/10/12 05:37:26;;;;;;;;;;;;;;;20.10;61.68;97752.53;602312;235;66991;-64
2023/10/12 05:39:59;;;;;;;;;;;;;;;20.11;61.58;97750.70;601498;235;62638;-63
2023/10/12 05:42:27;;;;;;;;;;;;;;;20.09;61.51;97745.59;602390;235;67046;-64
2023/10/12 05:45:17;;;;;;;;;;;;;;;20.10;61.59;97749.86;602282;235;64876;-64
2023/10/12 05:47:30;;;;;;;;;;;;;;;20.11;61.71;97758.70;601116;235;62433;-64
2023/10/12 05:49:58;;;;;;;;;;;;;;;20.09;61.67;97758.94;602147;229;65056;-64
2023/10/12 05:52:26;;;;;;;;;;;;;;;20.10;61.91;97765.08;602223;235;67308;-63
2023/10/12 05:54:59;;;;;;;;;;;;;;;20.09;61.68;97756.27;602271;234;64763;-63
2023/10/12 05:57:30;;;;;;;;;;;;;;;20.10;61.67;97765.08;602441;235;67260;-64
2023/10/12 06:00:01;;;;;;;;;;;;;;;20.09;61.76;97763.47;602416;235;64380;-64
2023/10/12 06:02:29;;;;;;;;;;;;;;;20.10;62.02;97759.73;602267;235;64536;-64
2023/10/12 06:04:56;;;;;;;;;;;;;;;20.10;61.79;97770.41;601541;235;64981;-64
2023/10/12 06:07:24;;;;;;;;;;;;;;;20.09;62.02;97764.27;602338;235;65286;-64
2023/10/12 06:09:53;;;;;;;;;;;;;;;20.10;61.74;97765.08;602377;235;62483;-64
2023/10/12 06:12:24;;;;;;;;;;;;;;;20.10;61.67;97770.41;602410;235;68699;-64
2023/10/12 06:14:56;;;;;;;;;;;;;;;20.09;61.68;97766.14;602305;234;64621;-64
2023/10/12 06:17:39;;;;;;;;;;;;;;;20.10;61.68;97765.88;602194;235;64871;-64
2023/10/12 06:20:14;;;;;;;;;;;;;;;20.09;61.68;97769.61;601972;235;65012;-64
2023/10/12 06:22:42;;;;;;;;;;;;;;;20.10;61.63;97771.21;602147;234;66792;-68
2023/10/12 06:25:18;;;;;;;;;;;;;;;20.10;61.69;97771.21;602572;234;62725;-68
2023/10/12 06:27:41;;;;;;;;;;;;;;;20.09;61.94;97769.61;602306;234;64276;-68
2023/10/12 06:30:18;;;;;;;;;;;;;;;20.09;61.80;97764.27;602298;235;67230;-68
2023/10/12 06:32:46;;;;;;;;;;;;;;;20.09;61.59;97766.94;603828;229;64640;-68
2023/10/12 06:35:24;;;;;;;;;;;;;;;20.09;61.67;97764.27;608537;233;65050;-68
2023/10/12 06:40:37;;;;;;;;;;;;;;;20.09;61.88;97766.94;607931;229;64720;-68
2023/10/12 06:51:05;;;;;;;;;;;;;;;20.11;61.92;97766.70;597928;233;64871;-68
2023/10/12 06:53:36;;;;;;;;;;;;;;;20.08;60.53;97761.84;602519;235;64845;-68
2023/10/12 06:59:09;;;;;;;;;;;;;;;20.08;60.79;97752.00;601544;231;70063;-68
2023/10/12 07:01:38;;;;;;;;;;;;;;;20.09;60.64;97748.27;599517;231;67145;-68
2023/10/12 07:04:13;;;;;;;;;;;;;;;20.11;60.96;97761.38;597276;237;62467;-69
2023/10/12 07:06:38;;;;;;;;;;;;;;;20.11;61.02;97746.16;597511;231;67252;-68
2023/10/12 07:09:05;;;;;;;;;;;;;;;20.11;61.42;97756.84;598503;232;67209;-71
2023/10/12 07:11:33;;;;;;;;;;;;;;;20.14;61.71;97760.87;598840;232;61563;-68
2023/10/12 07:14:04;;;;;;;;;;;;;;;20.17;62.01;97755.04;602541;232;64859;-68
2023/10/12 07:16:31;;;;;;;;;;;;;;;20.18;62.19;97751.30;602876;235;65418;-67
2023/10/12 07:18:59;;;;;;;;;;;;;;;20.16;61.05;97756.91;602870;235;64737;-69
2023/10/12 07:21:27;;;;;;;;;;;;;;;20.16;61.01;97753.41;602885;235;67180;-69
2023/10/12 07:23:56;;;;;;;;;;;;;;;20.16;61.04;97748.91;599803;232;64811;-68
2023/10/12 07:26:24;;;;;;;;;;;;;;;20.16;61.23;97743.56;598401;232;64586;-71
2023/10/12 07:28:51;;;;;;;;;;;;;;;20.16;60.73;97748.91;601935;231;64759;-67
2023/10/12 07:39:23;;;;;;;;;;;;;;;20.17;61.00;97745.16;599135;235;67069;-68
2023/10/12 07:41:57;;;;;;;;;;;;;;;20.17;61.38;97750.50;596265;232;64622;-69
2023/10/12 07:44:21;;;;;;;;;;;;;;;20.17;61.47;97734.49;599559;232;66724;-67
2023/10/12 07:46:49;;;;;;;;;;;;;;;20.16;61.08;97732.89;602591;235;64900;-67
2023/10/12 07:52:13;;;;;;;;;;;;;;;20.17;61.62;97728.35;608147;233;67304;-67
2023/10/12 07:54:48;;;;;;;;;;;;;;;20.17;61.32;97729.16;607842;233;67112;-67
2023/10/12 07:57:16;;;;;;;;;;;;;;;20.18;61.59;97729.95;608152;233;62368;-67
2023/10/12 08:05:05;;;;;;;;;;;;;;;20.16;61.71;97719.55;603714;233;65435;-67
2023/10/12 08:07:26;;;;;;;;;;;;;;;20.17;61.76;97718.48;608156;232;64875;-68
2023/10/12 08:10:15;;;;;;;;;;;;;;;20.17;61.78;97707.80;608131;233;67121;-69
2023/10/12 08:12:26;;;;;;;;;;;;;;;20.18;61.26;97708.61;608123;232;64649;-68
2023/10/12 08:15:07;;;;;;;;;;;;;;;20.17;60.98;97705.13;608141;233;64743;-69
2023/10/12 08:17:33;;;;;;;;;;;;;;;20.18;60.92;97709.41;608223;232;64954;-68
2023/10/12 08:22:46;;;;;;;;;;;;;;;20.20;61.62;97711.04;608106;233;67431;-68
2023/10/12 08:25:27;;;;;;;;;;;;;;;20.19;61.36;97699.56;608215;233;66860;-68
2023/10/12 08:28:05;;;;;;;;;;;;;;;20.21;61.34;97701.97;607757;233;64770;-69
2023/10/12 08:30:23;;;;;;;;;;;;;;;20.20;61.27;97695.83;607769;233;67080;-68
2023/10/12 08:32:56;;;;;;;;;;;;;;;20.19;61.14;97686.22;608180;232;66679;-69
2023/10/12 08:35:35;;;;;;;;;;;;;;;20.19;60.88;97688.89;608112;232;64617;-69
2023/10/12 08:38:11;;;;;;;;;;;;;;;20.20;60.97;97684.35;608100;233;67331;-70
2023/10/12 08:40:22;;;;;;;;;;;;;;;20.20;61.19;97674.48;607242;233;67783;-72
2023/10/12 08:43:06;;;;;;;;;;;;;;;20.20;61.04;97676.34;604279;229;67495;-71
2023/10/12 08:45:28;;;;;;;;;;;;;;;20.20;60.96;97671.81;603204;229;64818;-73
2023/10/12 08:48:01;;;;;;;;;;;;;;;20.22;59.71;97679.58;605390;229;67010;-73
2023/10/12 08:51:09;;;;;;;;;;;;;;;20.22;59.90;97668.91;603993;229;64579;-73
2023/10/12 08:52:59;;;;;;;;;;;;;;;20.22;60.84;97666.23;602783;229;64197;-71
2023/10/12 08:55:31;;;;;;;;;;;;;;;20.20;60.72;97661.13;604755;229;64240;-68
2023/10/12 08:58:01;;;;;;;;;;;;;;;20.21;61.07;97664.60;605466;229;64911;-69
2023/10/12 09:03:07;;;;;;;;;;;;;;;20.20;60.86;97657.66;605401;229;66906;-71
2023/10/12 09:05:35;;;;;;;;;;;;;;;20.21;61.29;97654.73;603154;232;64667;-71
2023/10/12 09:13:30;;;;;;;;;;;;;;;20.21;60.97;97648.59;605071;229;64834;-70
2023/10/12 09:15:59;;;;;;;;;;;;;;;20.21;60.73;97643.25;605874;229;66693;-73
2023/10/12 09:18:34;;;;;;;;;;;;;;;20.22;60.95;97644.88;602868;232;66839;-71
2023/10/12 09:23:42;;;;;;;;;;;;;;;20.21;60.70;97627.23;602188;235;64569;-70
2023/10/12 09:31:39;;;;;;;;;;;;;;;20.21;60.90;97627.23;604616;229;64906;-72
2023/10/12 09:33:54;;;;;;;;;;;;;;;20.21;61.90;97625.38;603550;231;66901;-71
2023/10/12 09:36:19;;;;;;;;;;;;;;;20.20;61.62;97615.77;601768;235;64742;-72
2023/10/12 09:38:45;;;;;;;;;;;;;;;20.21;61.82;97619.23;601773;229;67184;-72
2023/10/12 09:41:16;;;;;;;;;;;;;;;20.22;62.34;97615.53;604524;229;67003;-73
2023/10/12 09:43:45;;;;;;;;;;;;;;;20.22;61.69;97607.52;604997;229;63587;-68
2023/10/12 09:46:17;;;;;;;;;;;;;;;20.22;61.46;97612.86;606513;229;64722;-67
2023/10/12 09:48:44;;;;;;;;;;;;;;;20.24;62.48;97602.72;607189;232;67449;-69
2023/10/12 09:51:15;;;;;;;;;;;;;;;20.23;61.62;97601.91;601790;235;64796;-71
2023/10/12 09:53:44;;;;;;;;;;;;;;;20.24;60.81;97597.38;602175;235;67940;-69
2023/10/12 09:56:16;;;;;;;;;;;;;;;20.24;60.30;97600.05;601986;235;67251;-63
2023/10/12 09:58:51;;;;;;;;;;;;;;;20.24;60.61;97590.17;601798;235;64724;-64
2023/10/12 10:01:16;;;;;;;;;;;;;;;20.25;60.38;97596.34;602228;232;67241;-63
2023/10/12 10:03:52;;;;;;;;;;;;;;;20.25;60.44;97585.66;602302;232;64351;-63
2023/10/12 10:06:37;;;;;;;;;;;;;;;20.26;60.28;97587.27;600775;236;64840;-63
2023/10/12 10:09:24;;;;;;;;;;;;;;;20.26;60.45;97581.92;600222;236;67212;-63
2023/10/12 10:11:58;;;;;;;;;;;;;;;20.27;61.19;97575.52;600650;234;66716;-65
2023/10/12 10:14:20;;;;;;;;;;;;;;;20.26;61.35;97569.37;600868;235;64734;-64
2023/10/12 10:16:57;;;;;;;;;;;;;;;20.25;61.95;97570.45;600774;236;66604;-64
2023/10/12 10:19:19;;;;;;;;;;;;;;;20.26;62.79;97555.23;600431;236;66812;-64
2023/10/12 10:22:04;;;;;;;;;;;;;;;20.26;62.35;97549.89;600754;236;64747;-65
2023/10/12 10:24:26;;;;;;;;;;;;;;;20.25;62.04;97554.44;600335;235;67439;-64
2023/10/12 10:26:58;;;;;;;;;;;;;;;20.26;62.40;97556.03;600831;236;66667;-65
2023/10/12 10:29:53;;;;;;;;;;;;;;;20.25;62.21;97550.97;600854;236;62722;-65
2023/10/12 10:32:30;;;;;;;;;;;;;;;20.25;62.35;97542.96;600778;236;66730;-64
2023/10/12 10:35:13;;;;;;;;;;;;;;;20.26;61.93;97534.69;598254;232;66784;-64
2023/10/12 10:37:47;;;;;;;;;;;;;;;20.26;61.94;97539.22;594331;232;63423;-65
2023/10/12 10:40:17;;;;;;;;;;;;;;;20.25;62.25;97533.08;593903;238;67087;-64
2023/10/12 10:42:44;;;;;;;;;;;;;;;20.26;62.42;97531.22;593900;238;67062;-64
2023/10/12 10:45:15;;;;;;;;;;;;;;;20.27;62.42;97527.48;593823;238;64915;-64
2023/10/12 10:47:49;;;;;;;;;;;;;;;20.25;62.55;97517.07;594281;238;64838;-62
2023/10/12 10:50:20;;;;;;;;;;;;;;;20.26;62.38;97523.20;599500;235;67481;-63
2023/10/12 10:52:46;;;;;;;;;;;;;;;20.26;62.37;97520.54;602104;235;64799;-62
2023/10/12 10:55:21;;;;;;;;;;;;;;;20.26;62.38;97509.86;602268;235;64800;-64
2023/10/12 10:57:43;;;;;;;;;;;;;;;20.26;62.87;97507.19;601588;235;64535;-63
2023/10/12 11:00:33;;;;;;;;;;;;;;;20.25;62.09;97506.39;602095;235;64922;-64
2023/10/12 11:02:41;;;;;;;;;;;;;;;20.26;62.65;97507.19;602192;233;66910;-63
2023/10/12 11:05:11;;;;;;;;;;;;;;;20.27;62.74;97498.12;602277;234;66510;-63
2023/10/12 11:07:39;;;;;;;;;;;;;;;20.26;63.07;97502.66;602239;235;64705;-64
2023/10/12 11:10:08;;;;;;;;;;;;;;;20.27;63.23;97498.95;601796;235;66981;-63
2023/10/12 11:12:38;;;;;;;;;;;;;;;20.27;62.96;97493.61;602185;235;67079;-64
2023/10/12 11:15:19;;;;;;;;;;;;;;;20.27;62.48;97485.60;602284;234;64553;-65
2023/10/12 11:18:29;;;;;;;;;;;;;;;20.27;62.39;97487.44;602411;233;66968;-64
2023/10/12 11:20:43;;;;;;;;;;;;;;;20.26;62.56;97480.50;597580;235;66762;-65
2023/10/12 11:23:07;;;;;;;;;;;;;;;20.27;62.67;97482.11;602173;233;65063;-64
2023/10/12 11:25:39;;;;;;;;;;;;;;;20.26;63.06;97475.16;602089;234;66943;-64
2023/10/12 11:28:05;;;;;;;;;;;;;;;20.26;63.21;97475.16;602080;235;66872;-64
2023/10/12 11:30:42;;;;;;;;;;;;;;;20.25;63.80;97471.70;602191;235;62374;-65
2023/10/12 11:33:09;;;;;;;;;;;;;;;20.25;63.81;97476.23;602160;235;66732;-64
2023/10/12 11:35:37;;;;;;;;;;;;;;;20.25;63.72;97470.90;602161;235;66855;-65
2023/10/12 11:38:04;;;;;;;;;;;;;;;20.25;63.85;97468.23;602116;235;64632;-63
2023/10/12 11:40:31;;;;;;;;;;;;;;;20.25;63.58;97463.69;602197;235;67294;-65
2023/10/12 11:42:59;;;;;;;;;;;;;;;20.25;63.64;97462.89;602190;235;66844;-65
2023/10/12 11:45:33;;;;;;;;;;;;;;;20.23;62.29;97465.80;601898;235;64446;-65
2023/10/12 11:47:55;;;;;;;;;;;;;;;20.24;62.73;97455.92;601752;235;66965;-65
2023/10/12 11:50:32;;;;;;;;;;;;;;;20.24;61.85;97451.39;596712;234;66766;-72
2023/10/12 11:53:01;;;;;;;;;;;;;;;20.27;63.28;97455.41;594882;238;62760;-69
2023/10/12 11:55:31;;;;;;;;;;;;;;;20.28;60.71;97444.50;594826;238;67004;-68
2023/10/12 11:57:59;;;;;;;;;;;;;;;20.32;57.61;97436.77;594829;238;66709;-63
2023/10/12 12:00:29;;;;;;;;;;;;;;;20.35;61.31;97446.94;594867;238;62544;-64
2023/10/12 12:02:57;;;;;;;;;;;;;;;20.34;60.63;97440.00;594817;237;66835;-64
2023/10/12 12:05:26;;;;;;;;;;;;;;;20.32;61.59;97431.44;594756;237;64781;-65
2023/10/12 12:07:55;;;;;;;;;;;;;;;20.31;61.77;97433.30;594794;237;62709;-65
2023/10/12 12:13:08;;;;;;;;;;;;;;;20.31;61.81;97424.50;594816;237;64290;-65
2023/10/12 12:15:36;;;;;;;;;;;;;;;20.31;61.72;97424.50;594885;238;64575;-65
2023/10/12 12:18:05;;;;;;;;;;;;;;;20.30;62.04;97421.03;594777;238;66752;-65
2023/10/12 12:20:43;;;;;;;;;;;;;;;20.30;62.24;97422.91;594798;238;64576;-64
2023/10/12 12:23:10;;;;;;;;;;;;;;;20.31;61.91;97421.83;594520;238;62551;-65
2023/10/12 12:25:39;;;;;;;;;;;;;;;20.31;61.81;97413.83;594611;238;67759;-66
2023/10/12 12:28:07;;;;;;;;;;;;;;;20.30;61.81;97417.56;596184;235;67051;-65
2023/10/12 12:30:36;;;;;;;;;;;;;;;20.31;61.81;97419.16;599980;236;62728;-66
2023/10/12 12:33:08;;;;;;;;;;;;;;;20.30;61.85;97410.36;599866;236;66953;-64
2023/10/12 12:35:36;;;;;;;;;;;;;;;20.29;61.75;97407.93;599811;236;64394;-66
2023/10/12 12:38:05;;;;;;;;;;;;;;;20.31;61.64;97408.48;599905;235;62602;-64
2023/10/12 12:40:38;;;;;;;;;;;;;;;20.30;61.88;97401.55;599756;235;64510;-65
2023/10/12 12:43:01;;;;;;;;;;;;;;;20.30;62.39;97401.55;600372;234;64782;-64
2023/10/12 12:45:30;;;;;;;;;;;;;;;20.30;62.14;97407.69;599941;236;64819;-65
2023/10/12 12:47:58;;;;;;;;;;;;;;;20.30;62.38;97404.22;599910;236;64150;-65
2023/10/12 12:50:28;;;;;;;;;;;;;;;20.31;62.88;97403.15;602137;233;64691;-64
2023/10/12 12:52:57;;;;;;;;;;;;;;;20.30;63.00;97402.34;602668;234;62274;-66
2023/10/12 12:55:30;;;;;;;;;;;;;;;20.30;62.82;97398.88;602714;235;68003;-65
2023/10/12 12:57:59;;;;;;;;;;;;;;;20.30;62.75;97401.55;602657;234;66664;-66
2023/10/12 13:00:24;;;;;;;;;;;;;;;20.30;62.78;97399.68;602467;234;64810;-65
2023/10/12 13:02:52;;;;;;;;;;;;;;;20.29;62.59;97394.59;602792;235;66747;-66
2023/10/12 13:05:20;;;;;;;;;;;;;;;20.30;62.23;97393.55;602717;235;65388;-66
2023/10/12 13:07:47;;;;;;;;;;;;;;;20.30;62.38;97390.88;602746;235;64581;-65
2023/10/12 13:10:15;;;;;;;;;;;;;;;20.30;62.44;97388.20;602834;235;66699;-64
2023/10/12 13:12:42;;;;;;;;;;;;;;;20.31;62.59;97381.80;602779;235;64102;-64
2023/10/12 13:15:10;;;;;;;;;;;;;;;20.29;62.76;97379.37;602731;235;62578;-64
2023/10/12 13:17:38;;;;;;;;;;;;;;;20.31;62.55;97379.13;602785;235;64367;-64
2023/10/12 13:20:17;;;;;;;;;;;;;;;20.30;62.25;97380.20;602790;235;66489;-65
2023/10/12 13:22:37;;;;;;;;;;;;;;;20.31;61.87;97373.78;602488;234;64595;-67
2023/10/12 13:25:04;;;;;;;;;;;;;;;20.30;62.25;97375.66;602787;235;67565;-65
2023/10/12 13:27:32;;;;;;;;;;;;;;;20.31;61.96;97371.12;602792;235;66426;-66
2023/10/12 13:30:18;;;;;;;;;;;;;;;20.31;61.90;97376.45;602759;235;64958;-65
2023/10/12 13:32:32;;;;;;;;;;;;;;;20.32;62.47;97364.70;601801;234;64032;-65
2023/10/12 13:35:02;;;;;;;;;;;;;;;20.30;62.64;97362.31;602838;235;64207;-67
2023/10/12 13:37:30;;;;;;;;;;;;;;;20.30;62.57;97361.52;602757;235;62608;-65
2023/10/12 13:39:58;;;;;;;;;;;;;;;20.30;62.49;97356.97;602771;235;66870;-64
2023/10/12 13:42:28;;;;;;;;;;;;;;;20.30;62.18;97356.17;602693;235;67016;-65
2023/10/12 13:44:56;;;;;;;;;;;;;;;20.31;61.24;97349.77;602784;235;64571;-70
2023/10/12 13:47:25;;;;;;;;;;;;;;;20.31;61.37;97349.77;602771;235;64422;-69
2023/10/12 13:49:54;;;;;;;;;;;;;;;20.31;61.50;97349.77;605046;233;64228;-69
2023/10/12 13:52:21;;;;;;;;;;;;;;;20.31;62.20;97344.42;607516;233;64641;-69
2023/10/12 13:54:52;;;;;;;;;;;;;;;20.31;62.04;97344.42;607547;233;66767;-68
2023/10/12 13:57:18;;;;;;;;;;;;;;;20.32;62.66;97346.02;607430;233;66678;-68
2023/10/12 13:59:45;;;;;;;;;;;;;;;20.32;62.57;97346.02;607588;233;64533;-68
2023/10/12 14:02:14;;;;;;;;;;;;;;;20.32;62.13;97335.34;607566;233;66545;-68
2023/10/12 14:04:41;;;;;;;;;;;;;;;20.31;62.23;97337.22;607357;233;64671;-68
2023/10/12 14:07:09;;;;;;;;;;;;;;;20.32;61.59;97343.36;607526;233;62476;-68
2023/10/12 14:09:39;;;;;;;;;;;;;;;20.32;60.95;97343.36;607579;233;67242;-67
2023/10/12 14:12:06;;;;;;;;;;;;;;;20.33;61.08;97336.97;607440;233;67640;-68
2023/10/12 14:14:34;;;;;;;;;;;;;;;20.32;61.78;97335.34;607545;233;62398;-67
2023/10/12 14:17:04;;;;;;;;;;;;;;;20.33;62.34;97337.77;607451;233;64727;-67
2023/10/12 14:19:30;;;;;;;;;;;;;;;20.32;62.73;97333.48;607433;233;66618;-68
2023/10/12 14:22:00;;;;;;;;;;;;;;;20.32;62.47;97335.34;607593;233;63394;-67
2023/10/12 14:24:33;;;;;;;;;;;;;;;20.33;62.08;97336.97;607390;233;67104;-67
2023/10/12 14:26:58;;;;;;;;;;;;;;;20.33;59.08;97332.44;607415;233;66947;-68
2023/10/12 14:29:25;;;;;;;;;;;;;;;20.36;57.70;97333.78;607564;232;65049;-68
2023/10/12 14:31:54;;;;;;;;;;;;;;;20.38;58.98;97323.66;607542;233;67097;-68
2023/10/12 14:34:21;;;;;;;;;;;;;;;20.38;59.78;97335.13;607490;233;64585;-69
2023/10/12 14:36:49;;;;;;;;;;;;;;;20.39;60.70;97331.39;607542;233;64568;-67
2023/10/12 14:39:23;;;;;;;;;;;;;;;20.39;61.50;97330.59;607541;233;64757;-68
2023/10/12 14:41:51;;;;;;;;;;;;;;;20.38;60.98;97329.80;607467;233;67151;-69
2023/10/12 14:44:19;;;;;;;;;;;;;;;20.38;60.42;97329.00;607502;233;64568;-68
2023/10/12 14:46:49;;;;;;;;;;;;;;;20.39;60.63;97330.59;607468;233;67089;-68